createdAt,value
2019-02-25T00:01:35.025Z,1.23
2019-02-25T00:04:05.104Z,1.31
2019-02-25T00:06:34.119Z,1.38
2019-02-25T00:09:04.324Z,1.43
2019-02-25T00:11:33.277Z,1.36
2019-02-25T00:14:02.767Z,1.38
2019-02-25T00:16:31.751Z,1.20
2019-02-25T00:19:01.899Z,1.30
2019-02-25T00:21:31.057Z,1.31
2019-02-25T00:24:00.469Z,1.18
2019-02-25T00:26:29.436Z,0.97
2019-02-25T00:28:58.312Z,1.17
2019-02-25T00:31:28.329Z,1.16
2019-02-25T00:33:57.826Z,0.24
2019-02-25T00:36:27.044Z,0.70
2019-02-25T00:38:55.935Z,0.96
2019-02-25T00:41:25.272Z,0.93
2019-02-25T00:43:54.367Z,0.95
2019-02-25T00:46:24.438Z,0.88
2019-02-25T00:48:53.910Z,0.92
2019-02-25T00:51:24.061Z,0.90
2019-02-25T00:53:53.152Z,0.86
2019-02-25T00:56:22.638Z,0.94
2019-02-25T00:58:51.863Z,0.92
2019-02-25T01:01:21.137Z,0.86
2019-02-25T01:03:51.770Z,0.68
2019-02-25T01:20:12.507Z,0.17
2019-02-25T01:22:41.486Z,0.77
2019-02-25T01:25:10.775Z,0.72
2019-02-25T01:27:39.735Z,0.65
2019-02-25T01:30:10.558Z,0.44
2019-02-25T01:32:39.414Z,0.19
2019-02-25T01:35:10.111Z,0.02
2019-02-25T01:37:39.063Z,0.43
2019-02-25T01:40:09.237Z,0.44
2019-02-25T01:42:38.305Z,0.52
2019-02-25T01:45:08.923Z,0.56
2019-02-25T01:47:38.441Z,0.54
2019-02-25T01:50:08.153Z,0.55
2019-02-25T01:52:36.978Z,0.24
2019-02-25T01:55:06.217Z,-0.25
2019-02-25T01:57:35.296Z,0.05
2019-02-25T02:00:05.126Z,0.24
2019-02-25T02:02:34.327Z,0.38
2019-02-25T02:05:03.298Z,0.43
2019-02-25T02:07:32.115Z,0.40
2019-02-25T02:10:01.027Z,0.37
2019-02-25T02:12:32.106Z,0.22
2019-02-25T02:15:01.460Z,0.29
2019-02-25T02:17:30.343Z,0.33
2019-02-25T02:19:59.178Z,0.32
2019-02-25T02:22:30.245Z,0.21
2019-02-25T02:24:59.435Z,0.04
2019-02-25T02:27:28.275Z,-0.03
2019-02-25T02:29:57.407Z,-0.73
2019-02-25T02:32:26.483Z,-0.35
2019-02-25T02:34:55.321Z,0.00
2019-02-25T02:37:24.174Z,0.09
2019-02-25T02:39:53.018Z,0.12
2019-02-25T02:42:22.624Z,0.12
2019-02-25T02:44:56.738Z,0.14
2019-02-25T02:47:41.458Z,0.13
2019-02-25T02:50:13.502Z,0.14
2019-02-25T02:52:42.384Z,0.10
2019-02-25T02:55:11.395Z,0.10
2019-02-25T02:57:40.411Z,0.09
2019-02-25T03:00:12.919Z,-0.06
2019-02-25T03:02:41.808Z,-0.15
2019-02-25T03:05:12.525Z,-0.14
2019-02-25T03:07:41.474Z,-0.57
2019-02-25T03:10:11.702Z,-0.53
2019-02-25T03:12:40.871Z,-0.43
2019-02-25T03:15:12.848Z,-0.32
2019-02-25T03:17:41.695Z,-0.18
2019-02-25T03:20:11.250Z,-0.35
2019-02-25T03:22:40.482Z,-0.27
2019-02-25T03:25:11.343Z,-0.35
2019-02-25T03:27:40.330Z,-0.97
2019-02-25T03:30:12.669Z,-0.51
2019-02-25T03:32:41.551Z,-0.29
2019-02-25T03:35:10.824Z,-0.24
2019-02-25T03:37:39.626Z,-0.27
2019-02-25T03:40:11.720Z,-0.29
2019-02-25T03:42:40.905Z,-0.38
2019-02-25T03:45:11.038Z,-0.35
2019-02-25T03:47:39.981Z,-0.29
2019-02-25T03:50:09.164Z,-0.28
2019-02-25T03:52:38.394Z,-0.30
2019-02-25T03:55:09.066Z,-0.29
2019-02-25T03:57:38.073Z,-0.35
2019-02-25T04:00:08.668Z,-0.41
2019-02-25T04:02:37.728Z,-0.87
2019-02-25T04:05:07.292Z,-0.92
2019-02-25T04:07:36.609Z,-0.59
2019-02-25T04:10:06.169Z,-0.51
2019-02-25T04:12:35.498Z,-0.49
2019-02-25T04:15:05.624Z,-0.48
2019-02-25T04:17:35.875Z,-0.55
2019-02-25T04:20:05.344Z,-0.90
2019-02-25T04:22:34.364Z,-1.04
2019-02-25T04:25:03.224Z,-0.67
2019-02-25T04:27:33.177Z,-0.59
2019-02-25T04:30:02.080Z,-0.64
2019-02-25T04:32:31.326Z,-0.65
2019-02-25T04:35:00.561Z,-1.27
2019-02-25T04:37:29.499Z,-1.02
2019-02-25T04:39:58.400Z,-0.74
2019-02-25T04:42:27.328Z,-0.71
2019-02-25T04:44:56.186Z,-0.66
2019-02-25T04:47:25.106Z,-0.80
2019-02-25T04:49:53.972Z,-1.75
2019-02-25T04:52:22.939Z,-1.32
2019-02-25T04:54:51.782Z,-1.03
2019-02-25T04:57:20.649Z,-0.81
2019-02-25T04:59:49.641Z,-0.87
2019-02-25T05:02:18.469Z,-0.85
2019-02-25T05:04:49.442Z,-1.58
2019-02-25T05:07:18.251Z,-1.54
2019-02-25T05:09:47.294Z,-1.08
2019-02-25T05:12:16.088Z,-0.92
2019-02-25T05:14:44.999Z,-0.93
2019-02-25T05:17:14.393Z,-0.91
2019-02-25T05:19:43.395Z,-0.90
2019-02-25T05:22:12.541Z,-0.90
2019-02-25T05:24:41.548Z,-1.26
2019-02-25T05:27:10.739Z,-1.10
2019-02-25T05:29:39.553Z,-0.95
2019-02-25T05:32:08.514Z,-0.93
2019-02-25T05:34:37.341Z,-0.93
2019-02-25T05:37:06.320Z,-1.21
2019-02-25T05:39:35.412Z,-1.59
2019-02-25T05:42:04.743Z,-1.43
2019-02-25T05:44:34.493Z,-1.15
2019-02-25T05:47:04.729Z,-1.53
2019-02-25T05:49:33.574Z,-1.33
2019-02-25T05:52:02.399Z,-1.63
2019-02-25T05:54:32.442Z,-1.63
2019-02-25T05:57:01.277Z,-1.31
2019-02-25T05:59:30.248Z,-1.31
2019-02-25T06:01:59.204Z,-1.41
2019-02-25T06:04:28.083Z,-1.32
2019-02-25T06:06:56.969Z,-1.85
2019-02-25T06:09:26.920Z,-1.65
2019-02-25T06:11:56.214Z,-1.28
2019-02-25T06:14:25.527Z,-1.21
2019-02-25T06:16:54.467Z,-1.18
2019-02-25T06:19:23.350Z,-1.25
2019-02-25T06:21:52.244Z,-1.21
2019-02-25T06:24:21.224Z,-1.15
2019-02-25T06:26:51.433Z,-1.11
2019-02-25T06:29:20.275Z,-1.18
2019-02-25T06:31:49.140Z,-1.16
2019-02-25T06:34:18.175Z,-1.14
2019-02-25T06:36:47.226Z,-1.12
2019-02-25T06:39:16.090Z,-1.18
2019-02-25T06:41:45.186Z,-1.28
2019-02-25T06:44:14.160Z,-1.17
2019-02-25T06:46:43.065Z,-1.11
2019-02-25T06:52:39.941Z,-1.64
2019-02-25T06:55:10.699Z,-2.11
2019-02-25T06:57:39.549Z,-1.56
2019-02-25T07:00:11.632Z,-1.15
2019-02-25T07:02:40.858Z,-1.14
2019-02-25T07:05:35.319Z,-1.02
2019-02-25T07:08:26.470Z,-0.97
2019-02-25T07:11:04.501Z,-1.26
2019-02-25T07:13:51.461Z,-1.47
2019-02-25T07:16:28.297Z,-1.08
2019-02-25T07:19:26.188Z,-0.91
2019-02-25T07:22:07.039Z,-1.09
2019-02-25T07:24:54.065Z,-0.81
2019-02-25T07:27:36.974Z,-0.74
2019-02-25T07:30:41.858Z,-0.72
2019-02-25T07:33:25.489Z,-0.72
2019-02-25T07:36:19.687Z,-0.55
2019-02-25T07:39:19.527Z,-0.49
2019-02-25T07:42:12.710Z,-0.47
2019-02-25T07:44:47.321Z,-0.27
2019-02-25T07:47:47.262Z,-0.21
2019-02-25T07:50:47.165Z,-0.13
2019-02-25T07:53:34.470Z,0.02
2019-02-25T07:56:13.899Z,0.07
2019-02-25T07:58:55.241Z,0.21
2019-02-25T08:01:36.974Z,0.30
2019-02-25T08:04:14.603Z,0.46
2019-02-25T08:06:53.514Z,0.58
2019-02-25T08:09:36.518Z,0.78
2019-02-25T08:12:39.800Z,0.95
2019-02-25T08:15:24.187Z,1.12
2019-02-25T08:18:10.616Z,1.27
2019-02-25T08:20:47.306Z,1.50
2019-02-25T08:23:38.022Z,1.68
2019-02-25T08:26:24.722Z,1.96
2019-02-25T08:29:11.515Z,2.42
2019-02-25T08:31:51.346Z,2.77
2019-02-25T08:34:38.152Z,3.07
2019-02-25T08:37:36.786Z,3.34
2019-02-25T08:40:31.876Z,3.41
2019-02-25T08:43:07.151Z,3.56
2019-02-25T08:45:44.207Z,3.60
2019-02-25T08:48:32.190Z,3.69
2019-02-25T08:51:01.234Z,4.03
2019-02-25T08:53:30.203Z,4.22
2019-02-25T08:55:59.629Z,4.44
2019-02-25T08:58:28.939Z,4.73
2019-02-25T09:00:58.831Z,4.82
2019-02-25T09:03:28.374Z,5.01
2019-02-25T09:05:57.366Z,4.96
2019-02-25T09:08:26.280Z,5.16
2019-02-25T09:10:55.508Z,5.40
2019-02-25T09:13:24.343Z,5.71
2019-02-25T09:15:53.242Z,5.49
2019-02-25T09:18:23.100Z,5.73
2019-02-25T09:20:51.950Z,5.99
2019-02-25T09:23:20.906Z,6.02
2019-02-25T09:25:49.764Z,6.10
2019-02-25T09:28:18.592Z,6.29
2019-02-25T09:30:47.510Z,6.50
2019-02-25T09:33:18.499Z,6.38
2019-02-25T09:35:47.472Z,6.49
2019-02-25T09:38:16.450Z,6.71
2019-02-25T09:40:45.781Z,7.14
2019-02-25T09:43:15.071Z,7.02
2019-02-25T09:45:44.130Z,6.81
2019-02-25T09:48:13.078Z,7.15
2019-02-25T09:50:42.223Z,7.37
2019-02-25T09:53:11.396Z,7.40
2019-02-25T09:55:40.529Z,7.44
2019-02-25T09:58:09.521Z,7.55
2019-02-25T10:00:40.276Z,7.83
2019-02-25T10:03:10.574Z,7.90
2019-02-25T10:05:40.134Z,7.85
2019-02-25T10:08:09.033Z,8.02
2019-02-25T10:10:37.979Z,8.29
2019-02-25T10:13:06.953Z,8.43
2019-02-25T10:15:36.032Z,8.56
2019-02-25T10:18:07.820Z,8.57
2019-02-25T10:20:36.750Z,8.50
2019-02-25T10:23:05.956Z,8.96
2019-02-25T10:25:35.088Z,8.96
2019-02-25T10:28:12.617Z,8.87
2019-02-25T10:30:41.436Z,9.03
2019-02-25T10:33:10.265Z,9.20
2019-02-25T10:35:39.184Z,9.24
2019-02-25T10:38:08.390Z,9.49
2019-02-25T10:40:37.261Z,9.48
2019-02-25T10:43:06.405Z,9.76
2019-02-25T10:45:59.929Z,9.68
2019-02-25T10:48:42.134Z,9.91
2019-02-25T10:51:27.126Z,9.71
2019-02-25T10:54:04.101Z,9.98
2019-02-25T10:57:02.914Z,10.21
2019-02-25T10:59:34.583Z,10.26
2019-02-25T11:02:09.105Z,10.10
2019-02-25T11:04:38.810Z,10.23
2019-02-25T11:07:09.676Z,10.25
2019-02-25T11:10:10.008Z,10.46
2019-02-25T11:12:40.503Z,10.84
2019-02-25T11:15:11.471Z,10.77
2019-02-25T11:17:40.270Z,10.97
2019-02-25T11:20:10.187Z,10.89
2019-02-25T11:22:39.910Z,10.90
2019-02-25T11:25:09.844Z,11.01
2019-02-25T11:27:40.012Z,11.37
2019-02-25T11:30:12.102Z,11.32
2019-02-25T11:32:41.056Z,11.41
2019-02-25T11:35:16.115Z,11.53
2019-02-25T11:37:45.969Z,11.40
2019-02-25T11:40:15.040Z,11.39
2019-02-25T11:42:44.218Z,11.34
2019-02-25T11:45:13.256Z,11.43
2019-02-25T11:47:42.517Z,11.69
2019-02-25T11:50:13.014Z,11.85
2019-02-25T11:52:42.078Z,11.79
2019-02-25T11:55:11.234Z,12.19
2019-02-25T11:57:40.233Z,11.94
2019-02-25T12:00:14.081Z,12.00
2019-02-25T12:02:44.114Z,12.18
2019-02-25T12:05:14.038Z,11.83
2019-02-25T12:07:43.186Z,12.05
2019-02-25T12:10:13.287Z,12.26
2019-02-25T12:12:42.449Z,12.31
2019-02-25T12:15:13.109Z,12.69
2019-02-25T12:17:42.217Z,12.70
2019-02-25T12:20:12.251Z,12.70
2019-02-25T12:22:41.249Z,12.49
2019-02-25T12:25:11.474Z,12.34
2019-02-25T12:27:40.568Z,12.49
2019-02-25T12:30:13.195Z,12.66
2019-02-25T12:32:42.300Z,12.85
2019-02-25T12:35:13.306Z,12.94
2019-02-25T12:37:42.393Z,13.07
2019-02-25T12:40:11.806Z,13.00
2019-02-25T12:42:41.970Z,13.03
2019-02-25T12:45:11.992Z,13.20
2019-02-25T12:47:48.732Z,13.21
2019-02-25T12:50:17.672Z,13.14
2019-02-25T12:52:47.121Z,13.14
2019-02-25T12:55:16.063Z,13.44
2019-02-25T12:57:44.935Z,13.54
2019-02-25T13:00:14.697Z,13.41
2019-02-25T13:02:46.422Z,13.74
2019-02-25T13:05:15.901Z,13.28
2019-02-25T13:07:47.960Z,13.45
2019-02-25T13:10:17.636Z,13.43
2019-02-25T13:12:51.412Z,13.71
2019-02-25T13:15:21.370Z,13.61
2019-02-25T13:17:50.302Z,13.85
2019-02-25T13:20:27.114Z,13.88
2019-02-25T13:23:15.315Z,13.98
2019-02-25T13:26:06.974Z,13.82
2019-02-25T13:28:41.720Z,13.95
2019-02-25T13:31:37.045Z,13.88
2019-02-25T13:34:08.075Z,14.07
2019-02-25T13:36:38.022Z,14.14
2019-02-25T13:41:47.443Z,14.15
2019-02-25T13:44:16.301Z,14.37
2019-02-25T13:46:45.500Z,14.37
2019-02-25T13:49:14.679Z,14.60
2019-02-25T13:51:44.257Z,14.45
2019-02-25T13:54:14.752Z,14.38
2019-02-25T13:56:43.933Z,14.41
2019-02-25T13:59:12.980Z,14.92
2019-02-25T14:01:42.422Z,14.95
2019-02-25T14:04:11.456Z,14.97
2019-02-25T14:06:40.401Z,14.82
2019-02-25T14:09:10.798Z,14.74
2019-02-25T14:11:40.527Z,14.69
2019-02-25T14:14:10.558Z,14.61
2019-02-25T14:16:39.541Z,14.64
2019-02-25T14:19:09.032Z,14.83
2019-02-25T14:21:38.126Z,14.67
2019-02-25T14:24:07.235Z,14.63
2019-02-25T14:26:37.471Z,14.79
2019-02-25T14:29:07.366Z,14.76
2019-02-25T14:31:36.413Z,14.92
2019-02-25T14:34:05.649Z,14.84
2019-02-25T14:36:34.566Z,15.18
2019-02-25T14:39:06.155Z,14.97
2019-02-25T14:41:35.700Z,14.75
2019-02-25T14:44:05.238Z,14.96
2019-02-25T14:46:34.206Z,14.76
2019-02-25T14:49:03.201Z,14.58
2019-02-25T14:51:35.141Z,14.37
2019-02-25T14:54:03.987Z,14.38
2019-02-25T14:56:33.372Z,14.26
2019-02-25T14:59:12.517Z,14.36
2019-02-25T15:01:40.135Z,14.19
2019-02-25T15:04:09.794Z,13.88
2019-02-25T15:06:38.883Z,14.00
2019-02-25T15:09:12.041Z,13.90
2019-02-25T15:11:41.068Z,13.86
2019-02-25T15:14:10.723Z,13.73
2019-02-25T15:16:40.777Z,13.72
2019-02-25T15:19:09.729Z,14.10
2019-02-25T15:21:38.778Z,14.49
2019-02-25T15:24:14.744Z,14.77
2019-02-25T15:26:49.323Z,14.82
2019-02-25T15:29:18.752Z,15.19
2019-02-25T15:31:50.504Z,15.25
2019-02-25T15:34:21.189Z,15.32
2019-02-25T15:36:50.342Z,15.06
2019-02-25T15:39:19.911Z,15.60
2019-02-25T15:41:50.480Z,15.49
2019-02-25T15:44:19.831Z,15.39
2019-02-25T15:46:49.286Z,15.29
2019-02-25T15:49:19.735Z,14.89
2019-02-25T15:51:50.161Z,14.30
2019-02-25T15:54:21.806Z,13.87
2019-02-25T15:56:51.839Z,13.82
2019-02-25T15:59:21.033Z,13.59
2019-02-25T16:01:50.845Z,13.53
2019-02-25T16:04:20.053Z,13.38
2019-02-25T16:06:51.294Z,13.30
2019-02-25T16:09:23.838Z,13.28
2019-02-25T16:11:52.452Z,13.10
2019-02-25T16:14:23.377Z,13.01
2019-02-25T16:16:52.772Z,13.06
2019-02-25T16:19:22.082Z,12.84
2019-02-25T16:21:52.637Z,12.87
2019-02-25T16:24:22.003Z,12.88
2019-02-25T16:26:51.145Z,12.66
2019-02-25T16:29:20.011Z,12.59
2019-02-25T16:31:51.521Z,12.51
2019-02-25T16:34:20.985Z,12.57
2019-02-25T16:36:58.225Z,12.47
2019-02-25T16:39:28.379Z,12.41
2019-02-25T16:41:57.936Z,12.27
2019-02-25T16:44:26.802Z,12.28
2019-02-25T16:46:56.217Z,11.58
2019-02-25T16:49:25.741Z,11.58
2019-02-25T16:51:57.706Z,11.86
2019-02-25T16:54:27.252Z,11.88
2019-02-25T16:56:56.623Z,11.76
2019-02-25T16:59:29.437Z,11.76
2019-02-25T17:02:00.015Z,11.66
2019-02-25T17:04:32.801Z,11.57
2019-02-25T17:07:01.983Z,11.46
2019-02-25T17:09:36.383Z,11.46
2019-02-25T17:12:06.819Z,11.25
2019-02-25T17:14:41.552Z,10.65
2019-02-25T17:17:12.558Z,10.85
2019-02-25T17:19:44.733Z,10.80
2019-02-25T17:22:15.542Z,10.52
2019-02-25T17:24:52.397Z,10.63
2019-02-25T17:27:22.134Z,10.46
2019-02-25T17:29:52.930Z,10.41
2019-02-25T17:32:23.326Z,10.46
2019-02-25T17:34:56.556Z,10.46
2019-02-25T17:37:26.768Z,10.50
2019-02-25T17:39:58.494Z,10.40
2019-02-25T17:42:27.414Z,10.41
2019-02-25T17:44:57.669Z,10.35
2019-02-25T17:47:30.585Z,10.33
2019-02-25T17:50:00.846Z,10.25
2019-02-25T17:52:30.145Z,10.16
2019-02-25T17:54:59.129Z,10.02
2019-02-25T17:57:29.867Z,9.98
2019-02-25T17:59:59.710Z,9.50
2019-02-25T18:02:31.254Z,9.51
2019-02-25T18:05:00.232Z,9.30
2019-02-25T18:07:29.349Z,9.35
2019-02-25T18:13:08.204Z,9.20
2019-02-25T18:15:36.414Z,9.28
2019-02-25T18:18:11.597Z,9.38
2019-02-25T18:20:48.582Z,9.13
2019-02-25T18:23:21.237Z,9.25
2019-02-25T18:25:48.821Z,9.21
2019-02-25T18:28:19.671Z,9.19
2019-02-25T18:30:48.671Z,9.17
2019-02-25T18:33:20.399Z,9.22
2019-02-25T18:35:49.085Z,8.99
2019-02-25T18:38:18.130Z,8.89
2019-02-25T18:40:47.073Z,8.74
2019-02-25T18:43:16.738Z,8.73
2019-02-25T18:45:45.655Z,8.83
2019-02-25T18:48:17.372Z,8.84
2019-02-25T18:50:50.203Z,8.77
2019-02-25T18:53:20.511Z,8.66
2019-02-25T18:55:52.256Z,8.09
2019-02-25T18:58:21.629Z,7.91
2019-02-25T19:00:51.485Z,7.83
2019-02-25T19:03:21.623Z,7.57
2019-02-25T19:05:51.691Z,7.86
2019-02-25T19:08:22.862Z,7.83
2019-02-25T19:10:57.141Z,7.80
2019-02-25T19:13:32.169Z,7.67
2019-02-25T19:16:07.048Z,7.60
2019-02-25T19:18:36.342Z,7.17
2019-02-25T19:21:08.699Z,7.01
2019-02-25T19:23:39.479Z,6.67
2019-02-25T19:26:10.459Z,6.68
2019-02-25T19:28:39.281Z,6.97
2019-02-25T19:31:08.793Z,6.91
2019-02-25T19:33:38.193Z,6.54
2019-02-25T19:36:08.122Z,6.37
2019-02-25T19:38:41.950Z,6.85
2019-02-25T19:41:11.061Z,6.89
2019-02-25T19:43:39.839Z,6.99
2019-02-25T19:46:11.026Z,6.35
2019-02-25T19:48:40.214Z,6.58
2019-02-25T19:51:12.242Z,6.82
2019-02-25T19:53:42.976Z,6.34
2019-02-25T19:56:11.921Z,6.43
2019-02-25T19:58:41.238Z,6.49
2019-02-25T20:01:10.997Z,6.52
2019-02-25T20:03:42.490Z,6.59
2019-02-25T20:06:13.904Z,6.40
2019-02-25T20:08:43.036Z,6.16
2019-02-25T20:11:12.522Z,6.26
2019-02-25T20:13:42.986Z,6.08
2019-02-25T20:16:15.721Z,6.53
2019-02-25T20:18:44.510Z,6.62
2019-02-25T20:21:13.660Z,6.48
2019-02-25T20:23:42.483Z,6.52
2019-02-25T20:26:13.454Z,6.57
2019-02-25T20:28:46.180Z,6.29
2019-02-25T20:31:16.729Z,6.22
2019-02-25T20:33:47.073Z,5.84
2019-02-25T20:36:19.202Z,5.77
2019-02-25T20:38:47.775Z,5.70
2019-02-25T20:41:19.915Z,5.49
2019-02-25T20:43:53.276Z,5.65
2019-02-25T20:46:19.984Z,5.72
2019-02-25T20:48:49.071Z,5.77
2019-02-25T20:51:29.172Z,5.83
2019-02-25T20:53:57.526Z,5.44
2019-02-25T20:56:28.791Z,5.21
2019-02-25T20:58:58.963Z,5.04
2019-02-25T21:01:29.138Z,5.08
2019-02-25T21:03:58.059Z,5.38
2019-02-25T21:06:33.058Z,5.37
2019-02-25T21:09:11.123Z,5.37
2019-02-25T21:11:40.241Z,5.08
2019-02-25T21:14:09.137Z,4.36
2019-02-25T21:16:38.198Z,4.74
2019-02-25T21:19:08.053Z,5.06
2019-02-25T21:21:39.723Z,4.71
2019-02-25T21:24:11.272Z,4.78
2019-02-25T21:26:40.942Z,4.70
2019-02-25T21:29:10.189Z,4.98
2019-02-25T21:31:42.723Z,4.84
2019-02-25T21:34:09.910Z,4.75
2019-02-25T21:36:40.378Z,4.36
2019-02-25T21:39:12.226Z,4.19
2019-02-25T21:41:43.583Z,4.58
2019-02-25T21:44:16.676Z,4.70
2019-02-25T21:46:43.222Z,4.43
2019-02-25T21:49:12.070Z,4.35
2019-02-25T21:51:41.577Z,4.41
2019-02-25T21:54:11.577Z,3.12
2019-02-25T21:56:42.016Z,3.52
2019-02-25T21:59:12.777Z,4.04
2019-02-25T22:01:42.185Z,4.21
2019-02-25T22:04:13.396Z,4.16
2019-02-25T22:06:42.395Z,4.12
2019-02-25T22:09:12.176Z,3.86
2019-02-25T22:11:44.105Z,3.73
2019-02-25T22:14:15.896Z,3.74
2019-02-25T22:16:44.841Z,3.75
2019-02-25T22:19:14.723Z,3.70
2019-02-25T22:21:44.562Z,3.52
2019-02-25T22:24:16.118Z,3.57
2019-02-25T22:26:44.943Z,3.47
2019-02-25T22:29:14.210Z,3.69
2019-02-25T22:31:44.254Z,3.62
2019-02-25T22:34:15.336Z,3.63
2019-02-25T22:36:46.197Z,3.62
2019-02-25T22:39:15.293Z,3.46
2019-02-25T22:41:46.160Z,3.50
2019-02-25T22:44:14.975Z,3.23
2019-02-25T22:46:44.141Z,2.71
2019-02-25T22:49:13.090Z,3.22
2019-02-25T22:51:42.495Z,3.01
2019-02-25T22:54:12.473Z,3.06
2019-02-25T22:56:42.544Z,3.25
2019-02-25T22:59:11.797Z,3.08
2019-02-25T23:01:40.827Z,3.04
2019-02-25T23:04:13.060Z,3.20
2019-02-25T23:06:43.919Z,2.93
2019-02-25T23:09:14.115Z,2.60
2019-02-25T23:11:44.268Z,2.80
2019-02-25T23:14:15.697Z,3.02
2019-02-25T23:16:45.791Z,3.15
2019-02-25T23:19:18.051Z,2.87
2019-02-25T23:21:48.779Z,2.56
2019-02-25T23:24:18.023Z,2.83
2019-02-25T23:26:48.661Z,2.81
2019-02-25T23:29:30.415Z,2.71
2019-02-25T23:32:02.029Z,2.75
2019-02-25T23:34:30.408Z,2.29
2019-02-25T23:36:59.721Z,2.43
2019-02-25T23:39:32.029Z,2.58
2019-02-25T23:42:00.616Z,2.44
2019-02-25T23:44:32.530Z,2.49
2019-02-25T23:47:02.015Z,2.48
2019-02-25T23:49:31.836Z,2.38
2019-02-25T23:52:01.444Z,1.45
2019-02-25T23:54:30.423Z,1.65
2019-02-25T23:57:01.587Z,2.24
2019-02-25T23:59:30.636Z,2.19
